Latest Weather Observations for Moomba Airport

IDS60801

Issued at 5:31 am CDT Thursday 28 October 2021 (issued every 10 minutes, with the page automatically refreshed every 10 minutes)

About weather observations | Map of weather stations | Latest weather observations for SA | Other Formats
Station Details ID: 017123 Name: MOOMBA AIRPORT Lat: -28.10 Lon: 140.20 Height: 37.8 m
Data from the previous 72 hours. | See also: Recent months at Moomba Airport
Date/Time
CDT
Temp
°C
App
Temp
°C
Dew
Point
°C
Rel
Hum
%
Delta-T
°C
Wind Press
QNH
hPa
Press
MSL
hPa
Rain since
9am
mm
Dir  Spd
km/h
Gust
km/h
Spd
kts
Gust
kts
28/05:30am 25.6 22.0 10.6 39 8.4 E 20 28 11 15 1007.8 1007.6 -
28/05:00am 25.2 22.8 12.8 46 7.2 ESE 17 24 9 13 1008.3 1008.1 -
28/04:30am 24.6 23.0 15.0 55 5.8 E 17 20 9 11 1008.4 1008.2 -
28/04:00am 24.9 22.7 15.0 54 5.9 ESE 20 22 11 12 1008.3 1008.1 -
28/03:30am 26.2 23.7 14.0 47 7.3 SE 20 28 11 15 1008.8 1008.6 -
28/03:00am 26.5 24.1 14.3 47 7.3 SSE 20 30 11 16 1009.4 1009.2 0.6
28/02:30am 25.5 24.5 15.5 54 6.1 SSE 15 24 8 13 1009.9 1009.7 -
28/02:00am 25.8 24.2 16.4 56 5.8 SSE 20 28 11 15 1010.6 1010.4 -
28/01:44am 26.4 24.6 14.5 48 7.1 S 17 24 9 13 1011.3 1011.1 -
28/01:30am 26.0 25.6 17.1 58 5.5 WSW 15 19 8 10 1013.3 1013.2 -
28/01:20am 26.7 27.6 17.5 57 5.8 E 9 15 5 8 1012.7 1012.6 -
28/01:00am 28.5 27.9 13.6 40 8.9 SE 9 20 5 11 1010.7 1010.5 -
28/12:30am 28.7 29.6 13.0 38 9.3 CALM 0 6 0 3 1010.3 1010.1 -
28/12:00am 29.1 28.1 13.3 37 9.4 SSW 11 19 6 10 1010.2 1010.0 -
 
Date/Time
CDT
Temp
°C
App
Temp
°C
Dew
Point
°C
Rel
Hum
%
Delta-T
°C
Wind Press
QNH
hPa
Press
MSL
hPa
Rain since
9am
mm
Dir  Spd
km/h
Gust
km/h
Spd
kts
Gust
kts
27/11:30pm 29.0 25.6 13.6 38 9.2 SW 24 33 13 18 1010.1 1009.9 -
27/11:00pm 29.1 24.3 14.1 40 9.0 SW 32 43 17 23 1010.1 1009.9 -
27/10:43pm 29.3 23.8 13.5 38 9.4 SW 35 54 19 29 1010.5 1010.3 -
27/10:30pm 29.5 22.4 13.3 37 9.7 SW 43 54 23 29 1010.6 1010.4 -
27/10:29pm 29.6 22.5 13.4 37 9.7 SW 43 54 23 29 1010.6 1010.4 -
27/10:11pm 30.5 21.8 12.4 33 10.7 WSW 50 67 27 36 1010.4 1010.2 -
27/10:00pm 31.2 22.0 12.1 31 11.2 WSW 52 83 28 45 1009.7 1009.5 -
27/09:58pm 31.4 22.8 11.7 29 11.5 WSW 48 83 26 45 1009.4 1009.2 -
27/09:56pm 31.7 24.0 11.5 29 11.8 W 43 83 23 45 1008.8 1008.6 -
27/09:55pm 32.1 25.1 11.3 28 12.1 W 39 76 21 41 1009.3 1009.1 -
27/09:45pm 32.5 28.6 8.7 23 13.4 ESE 19 56 10 30 1009.8 1009.6 -
27/09:44pm 32.3 28.8 7.2 21 13.7 E 15 56 8 30 1009.7 1009.5 -
27/09:30pm 31.6 27.7 0.9 14 15.1 E 11 13 6 7 1007.7 1007.5 -
27/09:00pm 32.2 27.9 1.3 14 15.4 E 13 15 7 8 1007.5 1007.3 0.0
27/08:30pm 32.2 27.9 1.3 14 15.4 E 13 13 7 7 1007.3 1007.1 -
27/08:00pm 33.5 29.8 2.4 14 15.8 ESE 11 13 6 7 1007.1 1006.9 -
27/07:30pm 36.0 31.1 2.1 12 17.5 SE 17 22 9 12 1006.9 1006.7 -
27/07:00pm 36.7 31.9 2.7 12 17.7 ESE 17 20 9 11 1006.4 1006.2 -
27/06:30pm 37.7 32.3 2.2 11 18.5 SSE 20 26 11 14 1006.0 1005.8 -
27/06:00pm 38.0 31.5 2.5 11 18.6 S 26 35 14 19 1006.3 1006.1 -
27/05:41pm 38.3 31.0 2.7 11 18.7 SSW 30 43 16 23 1006.3 1006.1 -
27/05:30pm 39.8 35.0 2.5 10 19.8 W 17 22 9 12 1006.4 1006.2 -
27/05:00pm 39.5 34.1 2.2 10 19.6 WNW 20 32 11 17 1006.6 1006.4 -
27/04:30pm 40.1 35.1 1.2 9 20.3 WNW 17 32 9 17 1006.6 1006.4 -
27/04:00pm 40.5 35.1 1.5 9 20.4 NW 19 28 10 15 1007.1 1006.9 -
27/03:39pm 39.9 34.3 1.1 9 20.1 NNW 20 35 11 19 1007.1 1006.9 -
27/03:30pm 40.1 35.1 1.2 9 20.3 NW 17 30 9 16 1007.3 1007.1 -
27/03:00pm 39.2 33.3 -1.1 8 20.1 NNW 20 30 11 16 1007.7 1007.5 -
27/02:30pm 39.9 32.5 -0.5 8 20.5 NNW 28 39 15 21 1008.3 1008.1 -
27/11:00am 35.7 28.9 -2.0 9 18.1 NNE 24 30 13 16 1010.6 1010.4 0.0
27/10:30am 34.4 26.7 -3.0 9 17.6 NE 28 33 15 18 1010.8 1010.6 0.0
27/10:00am 32.9 24.7 -4.1 9 16.8 NNE 30 35 16 19 1011.2 1011.0 0.0
27/09:30am 32.2 24.7 -4.6 9 16.5 NE 26 35 14 19 1011.1 1010.9 0.0
27/09:00am 29.6 21.7 -5.2 10 15.2 NE 28 35 15 19 1011.2 1011.0 0.0
27/08:30am 27.4 19.7 -6.9 10 14.2 NE 26 41 14 22 1011.4 1011.2 0.0
27/08:00am 25.3 19.2 -7.2 11 13.1 NE 17 24 9 13 1011.5 1011.3 0.0
27/07:30am 22.2 16.6 -6.5 14 11.4 NE 15 20 8 11 1011.4 1011.2 0.0
27/07:00am 19.5 13.5 -7.0 16 10.1 ENE 17 19 9 10 1011.2 1011.0 0.0
27/06:30am 17.9 12.7 -6.7 18 9.3 ENE 13 15 7 8 1011.0 1010.8 0.0
27/06:00am 18.1 13.2 -6.6 18 9.4 NE 11 15 6 8 1010.9 1010.7 0.0
27/05:30am 17.6 13.1 -7.0 18 9.2 ENE 9 13 5 7 1010.8 1010.6 0.0
27/05:00am 17.0 11.7 -7.5 18 9.0 ENE 13 13 7 7 1010.7 1010.5 0.0
27/04:30am 17.2 12.3 -7.3 18 9.1 ENE 11 13 6 7 1010.5 1010.3 0.0
27/04:00am 18.0 11.9 -7.4 17 9.5 E 17 19 9 10 1010.1 1009.9 0.0
27/03:30am 19.0 13.3 -7.4 16 10.0 E 15 17 8 9 1010.5 1010.3 0.0
27/03:00am 19.1 13.9 -6.5 17 9.8 ENE 13 17 7 9 1010.5 1010.3 0.0
27/02:30am 18.0 12.8 -6.6 18 9.3 ENE 13 13 7 7 1010.7 1010.5 0.0
27/02:00am 18.2 13.7 -6.5 18 9.4 ENE 9 13 5 7 1011.1 1010.9 0.0
27/01:30am 18.3 13.4 -7.1 17 9.6 E 11 15 6 8 1011.5 1011.3 0.0
27/01:00am 18.9 13.6 -7.4 16 9.9 E 13 15 7 8 1011.8 1011.6 0.0
27/12:30am 19.1 14.2 -7.3 16 10.0 E 11 13 6 7 1012.2 1012.1 0.0
27/12:00am 20.6 16.1 -6.9 15 10.7 ESE 9 11 5 6 1012.6 1012.5 0.0
 
Date/Time
CDT
Temp
°C
App
Temp
°C
Dew
Point
°C
Rel
Hum
%
Delta-T
°C
Wind Press
QNH
hPa
Press
MSL
hPa
Rain since
9am
mm
Dir  Spd
km/h
Gust
km/h
Spd
kts
Gust
kts
26/11:30pm 21.7 16.8 -6.9 14 11.2 ESE 11 13 6 7 1012.6 1012.5 0.0
26/11:00pm 21.8 16.9 -6.8 14 11.2 ESE 11 15 6 8 1012.7 1012.6 0.0
26/10:30pm 22.1 17.2 -7.6 13 11.5 ESE 11 13 6 7 1012.6 1012.5 0.0
26/10:00pm 22.9 18.4 -6.9 13 11.8 ESE 9 11 5 6 1012.6 1012.5 0.0
26/09:30pm 23.8 18.9 -7.3 12 12.4 ESE 11 13 6 7 1012.3 1012.2 0.0
26/09:00pm 25.6 20.7 -7.0 11 13.3 ESE 11 13 6 7 1012.2 1012.1 0.0
26/08:30pm 27.1 21.8 -7.1 10 14.1 ESE 13 15 7 8 1012.0 1011.8 0.0
26/08:00pm 28.0 23.2 -6.4 10 14.5 ESE 11 13 6 7 1012.0 1011.8 0.0
26/07:30pm 30.2 25.8 -6.1 9 15.6 ESE 9 9 5 5 1011.8 1011.6 0.0
26/07:00pm 31.2 28.4 -6.9 8 16.3 CALM 0 6 0 3 1011.7 1011.5 0.0
26/06:30pm 32.2 28.3 -6.2 8 16.8 SSE 6 9 3 5 1011.5 1011.3 0.0
26/06:00pm 32.5 28.5 -6.0 8 16.9 SSE 7 11 4 6 1011.3 1011.1 0.0
26/05:30pm 32.7 28.7 -5.8 8 17.0 SSW 7 13 4 7 1011.3 1011.1 0.0
26/05:00pm 32.5 28.5 -6.0 8 16.9 NE 7 11 4 6 1011.6 1011.4 0.0
26/04:30pm 32.8 28.4 -5.7 8 17.1 ESE 9 17 5 9 1011.6 1011.4 0.0
26/04:00pm 32.7 28.3 -5.8 8 17.0 ESE 9 20 5 11 1011.8 1011.6 0.0
26/03:30pm 32.8 28.8 -5.7 8 17.1 SSW 7 15 4 8 1012.1 1012.0 0.0
26/03:00pm 32.0 26.8 -6.3 8 16.7 SE 13 20 7 11 1012.4 1012.3 0.0
26/02:30pm 32.4 28.1 -4.5 9 16.6 N 9 19 5 10 1012.7 1012.6 0.0
26/02:00pm 31.7 27.0 -5.0 9 16.3 NNW 11 19 6 10 1013.3 1013.2 0.0
26/01:30pm 30.9 25.8 -5.6 9 15.9 ESE 13 22 7 12 1013.9 1013.8 0.0
26/01:00pm 30.4 24.8 -6.0 9 15.7 E 15 30 8 16 1014.5 1014.4 0.0
26/12:30pm 30.1 24.7 -4.8 10 15.3 ESE 15 24 8 13 1015.0 1014.9 0.0
26/12:00pm 30.3 24.5 -4.7 10 15.4 E 17 26 9 14 1015.7 1015.6 0.0
26/11:30am 29.1 22.3 -5.6 10 14.9 ENE 22 30 12 16 1016.1 1016.0 0.0
26/11:00am 28.3 21.1 -4.9 11 14.4 E 24 33 13 18 1016.4 1016.3 0.0
26/10:30am 27.3 19.8 -4.6 12 13.7 E 26 33 14 18 1016.7 1016.6 0.0
26/10:00am 26.1 17.9 -4.4 13 13.1 E 30 35 16 19 1017.0 1016.9 0.0
26/09:30am 24.5 15.9 -3.8 15 12.1 E 32 41 17 22 1017.1 1017.0 0.0
26/09:00am 23.4 15.6 -3.8 16 11.5 E 28 33 15 18 1017.3 1017.2 0.0
26/08:30am 21.4 14.0 -3.9 18 10.5 E 26 32 14 17 1017.1 1017.0 0.0
26/08:00am 19.5 13.3 -3.4 21 9.4 ESE 20 26 11 14 1017.0 1016.9 0.0
26/07:30am 16.5 10.8 -4.1 24 8.1 ESE 17 19 9 10 1016.8 1016.7 0.0
26/07:00am 14.8 9.8 -4.0 27 7.3 ESE 13 15 7 8 1016.6 1016.5 0.0
26/06:30am 13.3 8.7 -4.3 29 6.6 ESE 11 15 6 8 1016.2 1016.1 0.0
26/06:00am 13.0 8.3 -5.1 28 6.7 ESE 11 13 6 7 1015.9 1015.8 0.0
26/05:30am 14.5 9.5 -4.2 27 7.2 ESE 13 17 7 9 1015.6 1015.5 0.0
26/05:00am 15.5 10.1 -4.4 25 7.7 SE 15 20 8 11 1015.2 1015.1 0.0
26/04:30am 16.0 10.2 -4.5 24 7.9 SE 17 20 9 11 1015.1 1015.0 0.0
26/04:00am 16.0 10.6 -4.5 24 7.9 SE 15 19 8 10 1015.1 1015.0 0.0
26/03:30am 17.2 11.4 -4.7 22 8.6 SE 17 22 9 12 1014.9 1014.8 0.0
26/03:00am 17.8 12.0 -4.2 22 8.7 SE 17 22 9 12 1014.9 1014.8 0.0
26/02:30am 18.3 12.1 -4.4 21 9.0 SE 19 24 10 13 1015.0 1014.9 0.0
26/02:00am 18.8 13.1 -4.0 21 9.2 SE 17 22 9 12 1015.2 1015.1 0.0
26/01:30am 19.2 13.1 -4.3 20 9.4 SE 19 26 10 14 1015.3 1015.2 0.0
26/01:00am 21.2 13.8 -4.0 18 10.4 SE 26 35 14 19 1015.5 1015.4 0.0
26/12:30am 21.6 14.1 -4.5 17 10.7 SE 26 35 14 19 1015.7 1015.6 0.0
26/12:00am 22.4 14.5 -4.6 16 11.1 SE 28 37 15 20 1015.7 1015.6 0.0
 
Date/Time
CDT
Temp
°C
App
Temp
°C
Dew
Point
°C
Rel
Hum
%
Delta-T
°C
Wind Press
QNH
hPa
Press
MSL
hPa
Rain since
9am
mm
Dir  Spd
km/h
Gust
km/h
Spd
kts
Gust
kts
25/11:30pm 22.8 16.5 -4.3 16 11.3 SSE 20 32 11 17 1015.9 1015.8 0.0
25/11:00pm 23.2 16.4 -4.8 15 11.6 SE 22 32 12 17 1015.8 1015.7 0.0
25/10:30pm 23.7 17.4 -4.4 15 11.8 SSE 20 32 11 17 1015.6 1015.5 0.0
25/10:00pm 24.1 18.0 -4.1 15 11.9 SSE 19 32 10 17 1015.4 1015.3 0.0
25/09:30pm 23.9 18.1 -4.3 15 11.9 SSE 17 24 9 13 1015.2 1015.1 0.0
25/09:00pm 24.2 18.8 -4.9 14 12.1 SSE 15 20 8 11 1014.8 1014.7 0.0
25/08:30pm 25.3 19.5 -5.1 13 12.8 SSE 17 20 9 11 1014.6 1014.5 0.0
25/08:00pm 26.0 19.8 -4.5 13 13.0 SE 19 26 10 14 1014.3 1014.2 0.0
25/07:30pm 26.8 20.4 -4.9 12 13.5 SE 20 26 11 14 1014.1 1014.0 0.0
25/07:00pm 27.6 21.1 -5.5 11 14.1 SE 20 28 11 15 1013.7 1013.6 0.0
25/06:30pm 28.2 21.7 -6.3 10 14.5 SE 20 26 11 14 1013.5 1013.4 0.0
25/06:00pm 28.9 22.6 -5.7 10 14.8 SSE 19 26 10 14 1013.3 1013.2 0.0
25/05:30pm 29.1 22.8 -5.6 10 14.9 SSE 19 28 10 15 1013.2 1013.1 0.0
25/05:00pm 29.0 22.7 -5.7 10 14.9 SE 19 30 10 16 1013.4 1013.3 0.0
25/04:30pm 29.2 23.3 -5.5 10 15.0 SE 17 28 9 15 1013.6 1013.5 0.0
25/04:00pm 29.1 22.8 -5.6 10 14.9 SE 19 30 10 16 1014.0 1013.9 0.0
25/03:30pm 30.0 23.8 -4.9 10 15.3 SE 19 30 10 16 1014.3 1014.2 0.0
25/03:00pm 29.1 23.3 -4.3 11 14.7 SE 17 28 9 15 1014.6 1014.5 0.0
25/02:30pm 28.5 22.3 -4.8 11 14.4 SSE 19 28 10 15 1015.1 1015.0 0.0
25/02:00pm 28.4 22.0 -4.9 11 14.4 SE 20 30 11 16 1015.4 1015.3 0.0
25/01:30pm 28.9 22.2 -4.5 11 14.6 SE 22 32 12 17 1015.9 1015.8 0.0
25/01:00pm 28.0 22.0 -3.0 13 13.8 ESE 19 30 10 16 1016.5 1016.4 0.0
25/12:30pm 27.6 21.5 -2.3 14 13.5 SE 20 32 11 17 1017.0 1016.9 0.0
25/12:00pm 26.9 19.7 -1.9 15 13.0 SE 26 37 14 20 1017.6 1017.5 0.0
25/11:30am 26.4 19.9 -2.3 15 12.8 SE 22 32 12 17 1018.0 1017.9 0.0
25/11:00am 26.1 18.5 -2.5 15 12.7 ESE 28 35 15 19 1018.4 1018.3 0.0
25/10:30am 25.2 16.8 -2.4 16 12.1 ESE 32 41 17 22 1018.8 1018.7 0.0
25/10:00am 24.7 15.8 -2.0 17 11.8 ESE 35 43 19 23 1018.7 1018.6 0.0
25/09:30am 23.4 15.1 -1.5 19 11.0 ESE 32 41 17 22 1018.9 1018.8 0.0
25/09:00am 21.8 13.0 -1.5 21 10.1 ESE 35 43 19 23 1018.8 1018.7 0.0
25/08:30am 20.1 13.0 -1.1 24 9.2 SE 26 33 14 18 1018.7 1018.6 0.0
25/08:00am 18.2 12.0 -0.6 28 8.1 SE 22 33 12 18 1018.6 1018.5 0.0
25/07:30am 17.0 11.4 0.2 32 7.2 SE 19 26 10 14 1018.4 1018.3 0.0
25/07:00am 16.1 11.0 0.7 35 6.7 SE 17 22 9 12 1018.0 1017.9 0.0
25/06:30am 15.8 10.8 1.5 38 6.3 SE 17 22 9 12 1017.4 1017.3 0.0
25/06:00am 16.2 11.3 2.2 39 6.3 SE 17 22 9 12 1017.1 1017.0 0.0

Other formats

Comma delimited format used in spreadsheet applications
http://www.bom.gov.au/fwo/IDS60801/IDS60801.95481.axf

JavaScript Object Notation format (JSON) in row-major order
http://www.bom.gov.au/fwo/IDS60801/IDS60801.95481.json

Data quality

Most of these data are generated automatically and are frequently updated. Quality checks on data are not normally performed. It is possible for incorrect values to appear. Refer to information at About Latest Weather Observations and please check the disclaimer before using these data.